sensor_id;sensor_type;location;lat;lon;timestamp;P1;durP1;ratioP1;P2;durP2;ratioP2
79074;SDS011;68476;42.710;23.388;2023-06-14T00:02:00;11.05;;;6.60;;
79074;SDS011;68476;42.710;23.388;2023-06-14T00:04:26;12.07;;;6.82;;
79074;SDS011;68476;42.710;23.388;2023-06-14T00:06:51;11.23;;;6.68;;
79074;SDS011;68476;42.710;23.388;2023-06-14T00:09:17;10.50;;;6.38;;
79074;SDS011;68476;42.710;23.388;2023-06-14T00:11:43;10.30;;;6.50;;
79074;SDS011;68476;42.710;23.388;2023-06-14T00:14:09;10.73;;;6.63;;
79074;SDS011;68476;42.710;23.388;2023-06-14T00:16:35;8.73;;;6.53;;
79074;SDS011;68476;42.710;23.388;2023-06-14T00:19:02;9.55;;;6.85;;
79074;SDS011;68476;42.710;23.388;2023-06-14T00:21:31;12.30;;;6.82;;
79074;SDS011;68476;42.710;23.388;2023-06-14T00:24:00;9.15;;;6.43;;
79074;SDS011;68476;42.710;23.388;2023-06-14T00:26:26;9.90;;;6.65;;
79074;SDS011;68476;42.710;23.388;2023-06-14T00:28:51;9.05;;;5.85;;
79074;SDS011;68476;42.710;23.388;2023-06-14T00:31:17;7.63;;;6.07;;
79074;SDS011;68476;42.710;23.388;2023-06-14T00:33:42;7.80;;;5.90;;
79074;SDS011;68476;42.710;23.388;2023-06-14T00:36:08;8.65;;;6.07;;
79074;SDS011;68476;42.710;23.388;2023-06-14T00:38:33;7.22;;;5.28;;
79074;SDS011;68476;42.710;23.388;2023-06-14T00:40:59;11.65;;;5.85;;
79074;SDS011;68476;42.710;23.388;2023-06-14T00:43:25;8.52;;;5.47;;
79074;SDS011;68476;42.710;23.388;2023-06-14T00:45:50;10.75;;;5.60;;
79074;SDS011;68476;42.710;23.388;2023-06-14T00:48:16;8.27;;;5.50;;
79074;SDS011;68476;42.710;23.388;2023-06-14T00:50:45;9.70;;;5.72;;
79074;SDS011;68476;42.710;23.388;2023-06-14T00:53:11;11.85;;;5.93;;
79074;SDS011;68476;42.710;23.388;2023-06-14T00:55:37;11.05;;;6.25;;
79074;SDS011;68476;42.710;23.388;2023-06-14T00:58:03;10.55;;;5.97;;
79074;SDS011;68476;42.710;23.388;2023-06-14T01:00:28;9.55;;;6.28;;
79074;SDS011;68476;42.710;23.388;2023-06-14T01:02:54;9.88;;;6.25;;
79074;SDS011;68476;42.710;23.388;2023-06-14T01:05:20;9.80;;;6.30;;
79074;SDS011;68476;42.710;23.388;2023-06-14T01:13:08;6.82;;;5.57;;
79074;SDS011;68476;42.710;23.388;2023-06-14T01:15:43;7.63;;;5.68;;
79074;SDS011;68476;42.710;23.388;2023-06-14T01:18:09;8.77;;;5.47;;
79074;SDS011;68476;42.710;23.388;2023-06-14T01:20:42;10.85;;;5.72;;
79074;SDS011;68476;42.710;23.388;2023-06-14T01:23:10;8.48;;;5.57;;
79074;SDS011;68476;42.710;23.388;2023-06-14T01:25:37;6.93;;;5.47;;
79074;SDS011;68476;42.710;23.388;2023-06-14T01:28:05;8.00;;;6.13;;
79074;SDS011;68476;42.710;23.388;2023-06-14T01:30:40;9.30;;;6.03;;
79074;SDS011;68476;42.710;23.388;2023-06-14T01:33:16;8.25;;;6.22;;
79074;SDS011;68476;42.710;23.388;2023-06-14T01:35:45;9.93;;;6.28;;
79074;SDS011;68476;42.710;23.388;2023-06-14T01:38:15;8.32;;;6.38;;
79074;SDS011;68476;42.710;23.388;2023-06-14T01:40:44;10.75;;;6.95;;
79074;SDS011;68476;42.710;23.388;2023-06-14T01:43:10;11.10;;;6.78;;
79074;SDS011;68476;42.710;23.388;2023-06-14T01:45:38;10.68;;;6.82;;
79074;SDS011;68476;42.710;23.388;2023-06-14T01:48:09;9.88;;;6.28;;
79074;SDS011;68476;42.710;23.388;2023-06-14T01:50:34;9.52;;;6.35;;
79074;SDS011;68476;42.710;23.388;2023-06-14T01:53:00;10.00;;;6.72;;
79074;SDS011;68476;42.710;23.388;2023-06-14T01:55:26;9.98;;;5.97;;
79074;SDS011;68476;42.710;23.388;2023-06-14T01:57:54;10.13;;;6.55;;
79074;SDS011;68476;42.710;23.388;2023-06-14T02:00:20;10.05;;;6.75;;
79074;SDS011;68476;42.710;23.388;2023-06-14T02:02:46;9.73;;;6.18;;
79074;SDS011;68476;42.710;23.388;2023-06-14T02:05:12;9.27;;;5.82;;
79074;SDS011;68476;42.710;23.388;2023-06-14T02:07:37;7.90;;;5.82;;
79074;SDS011;68476;42.710;23.388;2023-06-14T02:10:03;11.55;;;6.63;;
79074;SDS011;68476;42.710;23.388;2023-06-14T02:12:30;7.53;;;5.63;;
79074;SDS011;68476;42.710;23.388;2023-06-14T02:14:55;10.77;;;5.88;;
79074;SDS011;68476;42.710;23.388;2023-06-14T02:17:21;8.10;;;5.78;;
79074;SDS011;68476;42.710;23.388;2023-06-14T02:19:47;7.97;;;5.53;;
79074;SDS011;68476;42.710;23.388;2023-06-14T02:22:13;8.45;;;6.30;;
79074;SDS011;68476;42.710;23.388;2023-06-14T02:24:40;7.20;;;6.00;;
79074;SDS011;68476;42.710;23.388;2023-06-14T02:27:06;9.00;;;5.22;;
79074;SDS011;68476;42.710;23.388;2023-06-14T02:29:31;8.77;;;6.35;;
79074;SDS011;68476;42.710;23.388;2023-06-14T02:31:57;7.65;;;5.82;;
79074;SDS011;68476;42.710;23.388;2023-06-14T02:34:25;8.48;;;5.80;;
79074;SDS011;68476;42.710;23.388;2023-06-14T02:36:50;9.77;;;6.40;;
79074;SDS011;68476;42.710;23.388;2023-06-14T02:39:17;10.38;;;6.93;;
79074;SDS011;68476;42.710;23.388;2023-06-14T02:41:45;8.48;;;6.28;;
79074;SDS011;68476;42.710;23.388;2023-06-14T02:44:12;9.07;;;5.97;;
79074;SDS011;68476;42.710;23.388;2023-06-14T02:46:38;7.85;;;6.18;;
79074;SDS011;68476;42.710;23.388;2023-06-14T02:49:04;10.63;;;5.90;;
79074;SDS011;68476;42.710;23.388;2023-06-14T02:51:30;9.25;;;5.85;;
79074;SDS011;68476;42.710;23.388;2023-06-14T02:53:55;9.30;;;6.70;;
79074;SDS011;68476;42.710;23.388;2023-06-14T02:56:23;8.82;;;6.85;;
79074;SDS011;68476;42.710;23.388;2023-06-14T02:58:51;10.90;;;6.75;;
79074;SDS011;68476;42.710;23.388;2023-06-14T03:01:16;11.80;;;7.88;;
79074;SDS011;68476;42.710;23.388;2023-06-14T03:03:42;11.10;;;6.95;;
79074;SDS011;68476;42.710;23.388;2023-06-14T03:06:08;10.75;;;6.97;;
79074;SDS011;68476;42.710;23.388;2023-06-14T03:08:34;11.98;;;7.07;;
79074;SDS011;68476;42.710;23.388;2023-06-14T03:11:03;9.13;;;6.80;;
79074;SDS011;68476;42.710;23.388;2023-06-14T03:13:33;9.18;;;7.22;;
79074;SDS011;68476;42.710;23.388;2023-06-14T03:15:59;9.85;;;7.50;;
79074;SDS011;68476;42.710;23.388;2023-06-14T03:18:27;11.57;;;6.85;;
79074;SDS011;68476;42.710;23.388;2023-06-14T03:20:54;8.32;;;6.65;;
79074;SDS011;68476;42.710;23.388;2023-06-14T03:23:21;13.48;;;7.28;;
79074;SDS011;68476;42.710;23.388;2023-06-14T03:25:48;10.07;;;7.22;;
79074;SDS011;68476;42.710;23.388;2023-06-14T03:28:13;11.02;;;7.50;;
79074;SDS011;68476;42.710;23.388;2023-06-14T03:30:38;11.48;;;7.18;;
79074;SDS011;68476;42.710;23.388;2023-06-14T03:33:04;9.40;;;7.32;;
79074;SDS011;68476;42.710;23.388;2023-06-14T03:35:29;8.43;;;6.93;;
79074;SDS011;68476;42.710;23.388;2023-06-14T03:37:55;8.55;;;6.47;;
79074;SDS011;68476;42.710;23.388;2023-06-14T03:40:20;12.45;;;6.78;;
79074;SDS011;68476;42.710;23.388;2023-06-14T03:42:46;10.20;;;6.47;;
79074;SDS011;68476;42.710;23.388;2023-06-14T03:45:12;8.80;;;7.00;;
79074;SDS011;68476;42.710;23.388;2023-06-14T03:47:37;11.05;;;7.35;;
79074;SDS011;68476;42.710;23.388;2023-06-14T03:50:03;8.65;;;7.18;;
79074;SDS011;68476;42.710;23.388;2023-06-14T03:52:29;9.65;;;6.93;;
79074;SDS011;68476;42.710;23.388;2023-06-14T03:54:56;10.30;;;6.75;;
79074;SDS011;68476;42.710;23.388;2023-06-14T03:57:23;10.85;;;6.93;;
79074;SDS011;68476;42.710;23.388;2023-06-14T03:59:48;10.70;;;6.38;;
79074;SDS011;68476;42.710;23.388;2023-06-14T04:02:14;15.82;;;7.72;;
79074;SDS011;68476;42.710;23.388;2023-06-14T04:04:41;12.13;;;6.88;;
79074;SDS011;68476;42.710;23.388;2023-06-14T04:07:09;9.13;;;6.55;;
79074;SDS011;68476;42.710;23.388;2023-06-14T04:09:35;8.15;;;6.32;;
79074;SDS011;68476;42.710;23.388;2023-06-14T04:12:00;10.60;;;6.60;;
79074;SDS011;68476;42.710;23.388;2023-06-14T04:14:25;11.77;;;7.50;;
79074;SDS011;68476;42.710;23.388;2023-06-14T04:16:51;10.90;;;6.78;;
79074;SDS011;68476;42.710;23.388;2023-06-14T04:19:16;8.70;;;6.45;;
79074;SDS011;68476;42.710;23.388;2023-06-14T04:21:42;9.55;;;6.43;;
79074;SDS011;68476;42.710;23.388;2023-06-14T04:24:07;13.35;;;7.45;;
79074;SDS011;68476;42.710;23.388;2023-06-14T04:26:38;11.63;;;7.43;;
79074;SDS011;68476;42.710;23.388;2023-06-14T04:29:09;9.65;;;7.32;;
79074;SDS011;68476;42.710;23.388;2023-06-14T04:31:39;9.27;;;6.70;;
79074;SDS011;68476;42.710;23.388;2023-06-14T04:34:07;9.13;;;7.20;;
79074;SDS011;68476;42.710;23.388;2023-06-14T04:36:33;12.40;;;7.60;;
79074;SDS011;68476;42.710;23.388;2023-06-14T04:39:03;11.68;;;7.10;;
79074;SDS011;68476;42.710;23.388;2023-06-14T04:41:29;10.55;;;7.55;;
79074;SDS011;68476;42.710;23.388;2023-06-14T04:43:55;11.93;;;8.18;;
79074;SDS011;68476;42.710;23.388;2023-06-14T04:46:22;10.43;;;7.97;;
79074;SDS011;68476;42.710;23.388;2023-06-14T04:48:47;11.18;;;8.23;;
79074;SDS011;68476;42.710;23.388;2023-06-14T04:51:15;12.32;;;7.47;;
79074;SDS011;68476;42.710;23.388;2023-06-14T04:53:47;10.07;;;8.32;;
79074;SDS011;68476;42.710;23.388;2023-06-14T04:56:14;11.55;;;8.43;;
79074;SDS011;68476;42.710;23.388;2023-06-14T04:58:40;14.95;;;8.00;;
79074;SDS011;68476;42.710;23.388;2023-06-14T05:01:05;10.55;;;8.57;;
79074;SDS011;68476;42.710;23.388;2023-06-14T05:03:34;10.32;;;8.38;;
79074;SDS011;68476;42.710;23.388;2023-06-14T05:05:59;12.10;;;8.43;;
79074;SDS011;68476;42.710;23.388;2023-06-14T05:08:25;11.20;;;9.27;;
79074;SDS011;68476;42.710;23.388;2023-06-14T05:10:52;10.95;;;8.43;;
79074;SDS011;68476;42.710;23.388;2023-06-14T05:13:17;13.82;;;9.02;;
79074;SDS011;68476;42.710;23.388;2023-06-14T05:15:43;12.57;;;8.30;;
79074;SDS011;68476;42.710;23.388;2023-06-14T05:18:09;12.05;;;8.48;;
79074;SDS011;68476;42.710;23.388;2023-06-14T05:20:34;11.40;;;8.85;;
79074;SDS011;68476;42.710;23.388;2023-06-14T05:23:02;12.05;;;9.40;;
79074;SDS011;68476;42.710;23.388;2023-06-14T05:25:27;11.65;;;9.30;;
79074;SDS011;68476;42.710;23.388;2023-06-14T05:27:53;11.88;;;9.18;;
79074;SDS011;68476;42.710;23.388;2023-06-14T05:30:18;10.85;;;9.15;;
79074;SDS011;68476;42.710;23.388;2023-06-14T05:32:44;11.65;;;8.90;;
79074;SDS011;68476;42.710;23.388;2023-06-14T05:35:09;9.95;;;8.10;;
79074;SDS011;68476;42.710;23.388;2023-06-14T05:37:35;11.35;;;8.23;;
79074;SDS011;68476;42.710;23.388;2023-06-14T05:40:01;9.27;;;7.53;;
79074;SDS011;68476;42.710;23.388;2023-06-14T05:42:29;12.88;;;8.80;;
79074;SDS011;68476;42.710;23.388;2023-06-14T05:44:55;10.27;;;8.23;;
79074;SDS011;68476;42.710;23.388;2023-06-14T05:47:20;10.00;;;8.95;;
79074;SDS011;68476;42.710;23.388;2023-06-14T05:49:46;16.48;;;11.27;;
79074;SDS011;68476;42.710;23.388;2023-06-14T05:52:11;14.90;;;9.68;;
79074;SDS011;68476;42.710;23.388;2023-06-14T05:54:38;13.57;;;10.15;;
79074;SDS011;68476;42.710;23.388;2023-06-14T05:57:03;12.05;;;9.73;;
79074;SDS011;68476;42.710;23.388;2023-06-14T05:59:31;11.00;;;9.77;;
79074;SDS011;68476;42.710;23.388;2023-06-14T06:01:57;13.68;;;10.30;;
79074;SDS011;68476;42.710;23.388;2023-06-14T06:04:22;13.60;;;9.73;;
79074;SDS011;68476;42.710;23.388;2023-06-14T06:06:48;13.70;;;10.38;;
79074;SDS011;68476;42.710;23.388;2023-06-14T06:09:14;14.65;;;10.45;;
79074;SDS011;68476;42.710;23.388;2023-06-14T06:11:39;13.18;;;10.38;;
79074;SDS011;68476;42.710;23.388;2023-06-14T06:14:05;12.50;;;10.45;;
79074;SDS011;68476;42.710;23.388;2023-06-14T06:16:31;16.00;;;11.35;;
79074;SDS011;68476;42.710;23.388;2023-06-14T06:18:57;11.30;;;8.95;;
79074;SDS011;68476;42.710;23.388;2023-06-14T06:21:22;15.20;;;9.27;;
79074;SDS011;68476;42.710;23.388;2023-06-14T06:23:47;13.57;;;9.60;;
79074;SDS011;68476;42.710;23.388;2023-06-14T06:26:13;10.00;;;8.98;;
79074;SDS011;68476;42.710;23.388;2023-06-14T06:28:38;10.30;;;8.38;;
79074;SDS011;68476;42.710;23.388;2023-06-14T06:31:04;11.77;;;8.20;;
79074;SDS011;68476;42.710;23.388;2023-06-14T06:33:30;12.15;;;8.52;;
79074;SDS011;68476;42.710;23.388;2023-06-14T06:35:55;9.70;;;8.18;;
79074;SDS011;68476;42.710;23.388;2023-06-14T06:38:21;11.43;;;9.23;;
79074;SDS011;68476;42.710;23.388;2023-06-14T06:40:46;12.52;;;9.38;;
79074;SDS011;68476;42.710;23.388;2023-06-14T06:43:12;14.13;;;10.77;;
79074;SDS011;68476;42.710;23.388;2023-06-14T06:45:39;13.00;;;10.68;;
79074;SDS011;68476;42.710;23.388;2023-06-14T06:48:05;14.40;;;10.43;;
79074;SDS011;68476;42.710;23.388;2023-06-14T06:50:30;13.38;;;10.07;;
79074;SDS011;68476;42.710;23.388;2023-06-14T06:52:56;15.57;;;12.20;;
79074;SDS011;68476;42.710;23.388;2023-06-14T06:55:22;15.70;;;11.60;;
79074;SDS011;68476;42.710;23.388;2023-06-14T06:57:48;15.07;;;11.43;;
79074;SDS011;68476;42.710;23.388;2023-06-14T07:00:14;15.90;;;11.18;;
79074;SDS011;68476;42.710;23.388;2023-06-14T07:02:42;15.50;;;11.73;;
79074;SDS011;68476;42.710;23.388;2023-06-14T07:05:08;15.77;;;11.75;;
79074;SDS011;68476;42.710;23.388;2023-06-14T07:07:34;14.73;;;11.00;;
79074;SDS011;68476;42.710;23.388;2023-06-14T07:09:59;13.52;;;11.13;;
79074;SDS011;68476;42.710;23.388;2023-06-14T07:12:29;15.15;;;11.43;;
79074;SDS011;68476;42.710;23.388;2023-06-14T07:14:55;13.85;;;10.77;;
79074;SDS011;68476;42.710;23.388;2023-06-14T07:17:21;14.23;;;11.05;;
79074;SDS011;68476;42.710;23.388;2023-06-14T07:19:47;17.73;;;10.90;;
79074;SDS011;68476;42.710;23.388;2023-06-14T07:22:12;17.23;;;10.88;;
79074;SDS011;68476;42.710;23.388;2023-06-14T07:24:38;15.20;;;10.70;;
79074;SDS011;68476;42.710;23.388;2023-06-14T07:27:05;16.63;;;10.98;;
79074;SDS011;68476;42.710;23.388;2023-06-14T07:29:30;13.00;;;10.82;;
79074;SDS011;68476;42.710;23.388;2023-06-14T07:31:56;14.10;;;10.07;;
79074;SDS011;68476;42.710;23.388;2023-06-14T07:34:21;13.52;;;10.30;;
79074;SDS011;68476;42.710;23.388;2023-06-14T07:36:47;13.32;;;10.10;;
79074;SDS011;68476;42.710;23.388;2023-06-14T07:39:12;16.15;;;10.27;;
79074;SDS011;68476;42.710;23.388;2023-06-14T07:41:38;12.50;;;10.68;;
79074;SDS011;68476;42.710;23.388;2023-06-14T07:44:03;13.15;;;11.25;;
79074;SDS011;68476;42.710;23.388;2023-06-14T07:46:29;13.18;;;10.10;;
79074;SDS011;68476;42.710;23.388;2023-06-14T07:48:55;16.38;;;10.65;;
79074;SDS011;68476;42.710;23.388;2023-06-14T07:51:20;15.55;;;10.57;;
79074;SDS011;68476;42.710;23.388;2023-06-14T07:53:47;16.48;;;12.25;;
79074;SDS011;68476;42.710;23.388;2023-06-14T07:56:13;14.88;;;10.50;;
79074;SDS011;68476;42.710;23.388;2023-06-14T07:58:39;16.40;;;10.90;;
79074;SDS011;68476;42.710;23.388;2023-06-14T08:01:04;16.05;;;11.18;;
79074;SDS011;68476;42.710;23.388;2023-06-14T08:03:31;12.50;;;10.35;;
79074;SDS011;68476;42.710;23.388;2023-06-14T08:05:57;11.88;;;9.73;;
79074;SDS011;68476;42.710;23.388;2023-06-14T08:08:23;13.10;;;9.85;;
79074;SDS011;68476;42.710;23.388;2023-06-14T08:10:48;12.45;;;10.82;;
79074;SDS011;68476;42.710;23.388;2023-06-14T08:13:16;12.10;;;9.85;;
79074;SDS011;68476;42.710;23.388;2023-06-14T08:15:42;12.80;;;10.13;;
79074;SDS011;68476;42.710;23.388;2023-06-14T08:18:07;10.65;;;9.23;;
79074;SDS011;68476;42.710;23.388;2023-06-14T08:20:33;10.57;;;8.30;;
79074;SDS011;68476;42.710;23.388;2023-06-14T08:23:00;10.68;;;8.52;;
79074;SDS011;68476;42.710;23.388;2023-06-14T08:25:25;9.77;;;8.27;;
79074;SDS011;68476;42.710;23.388;2023-06-14T08:27:51;10.93;;;8.70;;
79074;SDS011;68476;42.710;23.388;2023-06-14T08:30:16;10.63;;;8.95;;
79074;SDS011;68476;42.710;23.388;2023-06-14T08:32:42;10.32;;;8.43;;
79074;SDS011;68476;42.710;23.388;2023-06-14T08:35:08;9.00;;;7.93;;
79074;SDS011;68476;42.710;23.388;2023-06-14T08:37:37;12.15;;;8.48;;
79074;SDS011;68476;42.710;23.388;2023-06-14T08:40:04;8.18;;;7.38;;
79074;SDS011;68476;42.710;23.388;2023-06-14T08:42:32;9.15;;;8.15;;
79074;SDS011;68476;42.710;23.388;2023-06-14T08:44:58;6.97;;;6.28;;
79074;SDS011;68476;42.710;23.388;2023-06-14T08:47:25;7.38;;;6.32;;
79074;SDS011;68476;42.710;23.388;2023-06-14T08:49:52;6.22;;;5.40;;
79074;SDS011;68476;42.710;23.388;2023-06-14T08:52:22;7.38;;;6.30;;
79074;SDS011;68476;42.710;23.388;2023-06-14T08:54:48;7.65;;;6.03;;
79074;SDS011;68476;42.710;23.388;2023-06-14T08:57:14;8.10;;;5.38;;
79074;SDS011;68476;42.710;23.388;2023-06-14T08:59:41;7.70;;;6.05;;
79074;SDS011;68476;42.710;23.388;2023-06-14T09:02:18;6.32;;;5.72;;
79074;SDS011;68476;42.710;23.388;2023-06-14T09:04:44;8.82;;;6.75;;
79074;SDS011;68476;42.710;23.388;2023-06-14T09:07:10;8.00;;;6.72;;
79074;SDS011;68476;42.710;23.388;2023-06-14T09:09:40;6.90;;;6.20;;
79074;SDS011;68476;42.710;23.388;2023-06-14T09:12:10;7.80;;;6.38;;
79074;SDS011;68476;42.710;23.388;2023-06-14T09:14:37;7.53;;;5.93;;
79074;SDS011;68476;42.710;23.388;2023-06-14T09:17:05;8.00;;;6.75;;
79074;SDS011;68476;42.710;23.388;2023-06-14T09:19:31;7.90;;;7.07;;
79074;SDS011;68476;42.710;23.388;2023-06-14T09:21:56;7.55;;;6.05;;
79074;SDS011;68476;42.710;23.388;2023-06-14T09:24:23;7.97;;;7.03;;
79074;SDS011;68476;42.710;23.388;2023-06-14T09:26:50;7.78;;;6.28;;
79074;SDS011;68476;42.710;23.388;2023-06-14T09:29:16;7.05;;;6.25;;
79074;SDS011;68476;42.710;23.388;2023-06-14T09:32:00;7.18;;;6.47;;
79074;SDS011;68476;42.710;23.388;2023-06-14T09:35:05;7.82;;;6.82;;
79074;SDS011;68476;42.710;23.388;2023-06-14T09:37:32;8.18;;;7.05;;
79074;SDS011;68476;42.710;23.388;2023-06-14T09:39:58;7.60;;;6.43;;
79074;SDS011;68476;42.710;23.388;2023-06-14T09:42:24;6.82;;;6.13;;
79074;SDS011;68476;42.710;23.388;2023-06-14T09:44:53;7.18;;;6.47;;
79074;SDS011;68476;42.710;23.388;2023-06-14T09:47:20;7.40;;;6.60;;
79074;SDS011;68476;42.710;23.388;2023-06-14T09:49:46;8.30;;;6.75;;
79074;SDS011;68476;42.710;23.388;2023-06-14T09:52:19;7.38;;;6.57;;
79074;SDS011;68476;42.710;23.388;2023-06-14T09:54:46;8.63;;;7.32;;
79074;SDS011;68476;42.710;23.388;2023-06-14T09:57:20;8.27;;;6.90;;
79074;SDS011;68476;42.710;23.388;2023-06-14T09:59:47;8.48;;;6.13;;
79074;SDS011;68476;42.710;23.388;2023-06-14T10:02:22;7.28;;;6.57;;
79074;SDS011;68476;42.710;23.388;2023-06-14T10:05:02;9.25;;;7.07;;
79074;SDS011;68476;42.710;23.388;2023-06-14T10:07:40;7.72;;;6.35;;
79074;SDS011;68476;42.710;23.388;2023-06-14T10:10:05;7.65;;;6.20;;
79074;SDS011;68476;42.710;23.388;2023-06-14T10:12:32;9.25;;;6.95;;
79074;SDS011;68476;42.710;23.388;2023-06-14T10:14:57;7.93;;;7.10;;
79074;SDS011;68476;42.710;23.388;2023-06-14T10:17:44;8.10;;;6.70;;
79074;SDS011;68476;42.710;23.388;2023-06-14T10:23:04;8.18;;;6.80;;
79074;SDS011;68476;42.710;23.388;2023-06-14T10:25:37;7.50;;;6.63;;
79074;SDS011;68476;42.710;23.388;2023-06-14T10:28:03;7.85;;;7.05;;
79074;SDS011;68476;42.710;23.388;2023-06-14T10:31:06;11.20;;;7.05;;
79074;SDS011;68476;42.710;23.388;2023-06-14T10:34:20;7.75;;;6.63;;
79074;SDS011;68476;42.710;23.388;2023-06-14T10:36:26;6.95;;;6.25;;
79074;SDS011;68476;42.710;23.388;2023-06-14T10:41:25;7.32;;;6.70;;
79074;SDS011;68476;42.710;23.388;2023-06-14T10:44:09;8.05;;;6.88;;
79074;SDS011;68476;42.710;23.388;2023-06-14T10:46:38;7.80;;;7.00;;
79074;SDS011;68476;42.710;23.388;2023-06-14T10:49:16;7.35;;;6.55;;
79074;SDS011;68476;42.710;23.388;2023-06-14T10:51:54;7.38;;;6.57;;
79074;SDS011;68476;42.710;23.388;2023-06-14T10:54:23;7.35;;;6.07;;
79074;SDS011;68476;42.710;23.388;2023-06-14T10:56:50;7.00;;;6.10;;
79074;SDS011;68476;42.710;23.388;2023-06-14T10:59:18;6.15;;;5.55;;
79074;SDS011;68476;42.710;23.388;2023-06-14T11:01:57;7.13;;;6.25;;
79074;SDS011;68476;42.710;23.388;2023-06-14T11:04:26;7.13;;;5.85;;
79074;SDS011;68476;42.710;23.388;2023-06-14T11:07:07;7.57;;;6.78;;
79074;SDS011;68476;42.710;23.388;2023-06-14T11:09:55;6.85;;;5.90;;
79074;SDS011;68476;42.710;23.388;2023-06-14T11:12:40;7.35;;;6.07;;
79074;SDS011;68476;42.710;23.388;2023-06-14T11:15:07;8.18;;;6.35;;
79074;SDS011;68476;42.710;23.388;2023-06-14T11:17:33;7.78;;;6.18;;
79074;SDS011;68476;42.710;23.388;2023-06-14T11:20:09;7.45;;;6.47;;
79074;SDS011;68476;42.710;23.388;2023-06-14T11:22:43;7.72;;;6.40;;
79074;SDS011;68476;42.710;23.388;2023-06-14T11:25:09;6.60;;;6.00;;
79074;SDS011;68476;42.710;23.388;2023-06-14T11:27:36;6.65;;;6.05;;
79074;SDS011;68476;42.710;23.388;2023-06-14T11:30:01;7.20;;;6.00;;
79074;SDS011;68476;42.710;23.388;2023-06-14T11:32:27;7.43;;;6.50;;
79074;SDS011;68476;42.710;23.388;2023-06-14T11:34:53;6.10;;;5.60;;
79074;SDS011;68476;42.710;23.388;2023-06-14T11:37:19;7.35;;;6.50;;
79074;SDS011;68476;42.710;23.388;2023-06-14T11:39:44;6.65;;;5.63;;
79074;SDS011;68476;42.710;23.388;2023-06-14T11:42:14;6.70;;;6.00;;
79074;SDS011;68476;42.710;23.388;2023-06-14T11:44:40;7.18;;;5.90;;
79074;SDS011;68476;42.710;23.388;2023-06-14T11:47:06;6.60;;;5.97;;
79074;SDS011;68476;42.710;23.388;2023-06-14T11:49:35;6.50;;;5.60;;
79074;SDS011;68476;42.710;23.388;2023-06-14T11:52:01;6.90;;;6.07;;
79074;SDS011;68476;42.710;23.388;2023-06-14T11:54:26;6.70;;;6.10;;
79074;SDS011;68476;42.710;23.388;2023-06-14T11:56:52;6.88;;;6.22;;
79074;SDS011;68476;42.710;23.388;2023-06-14T11:59:18;6.10;;;5.60;;
79074;SDS011;68476;42.710;23.388;2023-06-14T12:01:45;6.53;;;5.93;;
79074;SDS011;68476;42.710;23.388;2023-06-14T12:04:10;7.40;;;5.95;;
79074;SDS011;68476;42.710;23.388;2023-06-14T12:06:36;7.88;;;6.13;;
79074;SDS011;68476;42.710;23.388;2023-06-14T12:09:04;6.40;;;5.80;;
79074;SDS011;68476;42.710;23.388;2023-06-14T12:11:41;5.93;;;5.35;;
79074;SDS011;68476;42.710;23.388;2023-06-14T12:14:08;6.60;;;5.57;;
79074;SDS011;68476;42.710;23.388;2023-06-14T12:16:34;7.15;;;5.60;;
79074;SDS011;68476;42.710;23.388;2023-06-14T12:19:09;6.28;;;5.68;;
79074;SDS011;68476;42.710;23.388;2023-06-14T12:21:36;6.45;;;5.40;;
79074;SDS011;68476;42.710;23.388;2023-06-14T12:24:03;6.43;;;5.82;;
79074;SDS011;68476;42.710;23.388;2023-06-14T12:26:29;7.00;;;6.30;;
79074;SDS011;68476;42.710;23.388;2023-06-14T12:28:55;6.65;;;6.03;;
79074;SDS011;68476;42.710;23.388;2023-06-14T12:31:21;5.95;;;5.35;;
79074;SDS011;68476;42.710;23.388;2023-06-14T12:33:47;7.75;;;5.68;;
79074;SDS011;68476;42.710;23.388;2023-06-14T12:36:14;5.82;;;5.32;;
79074;SDS011;68476;42.710;23.388;2023-06-14T12:38:40;5.60;;;5.10;;
79074;SDS011;68476;42.710;23.388;2023-06-14T12:41:06;6.05;;;5.45;;
79074;SDS011;68476;42.710;23.388;2023-06-14T12:43:32;6.00;;;4.97;;
79074;SDS011;68476;42.710;23.388;2023-06-14T12:45:58;5.38;;;4.88;;
79074;SDS011;68476;42.710;23.388;2023-06-14T12:48:24;6.00;;;5.40;;
79074;SDS011;68476;42.710;23.388;2023-06-14T12:50:50;6.72;;;5.75;;
79074;SDS011;68476;42.710;23.388;2023-06-14T12:53:15;5.68;;;5.18;;
79074;SDS011;68476;42.710;23.388;2023-06-14T12:55:41;6.07;;;5.20;;
79074;SDS011;68476;42.710;23.388;2023-06-14T12:58:06;7.28;;;5.00;;
79074;SDS011;68476;42.710;23.388;2023-06-14T13:00:32;5.80;;;4.50;;
79074;SDS011;68476;42.710;23.388;2023-06-14T13:02:57;5.43;;;4.90;;
79074;SDS011;68476;42.710;23.388;2023-06-14T13:05:23;5.85;;;4.63;;
79074;SDS011;68476;42.710;23.388;2023-06-14T13:07:49;6.70;;;4.80;;
79074;SDS011;68476;42.710;23.388;2023-06-14T13:10:15;6.53;;;4.35;;
79074;SDS011;68476;42.710;23.388;2023-06-14T13:12:41;5.20;;;4.68;;
79074;SDS011;68476;42.710;23.388;2023-06-14T13:15:07;8.25;;;5.22;;
79074;SDS011;68476;42.710;23.388;2023-06-14T13:17:33;5.75;;;4.68;;
79074;SDS011;68476;42.710;23.388;2023-06-14T13:20:04;4.72;;;4.20;;
79074;SDS011;68476;42.710;23.388;2023-06-14T13:22:33;6.63;;;4.20;;
79074;SDS011;68476;42.710;23.388;2023-06-14T13:24:59;9.40;;;6.20;;
79074;SDS011;68476;42.710;23.388;2023-06-14T13:27:25;12.05;;;5.43;;
79074;SDS011;68476;42.710;23.388;2023-06-14T13:29:52;8.30;;;6.65;;
79074;SDS011;68476;42.710;23.388;2023-06-14T13:32:17;9.90;;;7.13;;
79074;SDS011;68476;42.710;23.388;2023-06-14T13:34:42;10.95;;;7.43;;
79074;SDS011;68476;42.710;23.388;2023-06-14T13:37:08;8.18;;;5.95;;
79074;SDS011;68476;42.710;23.388;2023-06-14T13:39:33;10.90;;;6.72;;
79074;SDS011;68476;42.710;23.388;2023-06-14T13:42:02;10.88;;;6.80;;
79074;SDS011;68476;42.710;23.388;2023-06-14T13:44:27;10.38;;;6.25;;
79074;SDS011;68476;42.710;23.388;2023-06-14T13:46:53;10.98;;;7.25;;
79074;SDS011;68476;42.710;23.388;2023-06-14T13:49:18;8.38;;;6.80;;
79074;SDS011;68476;42.710;23.388;2023-06-14T13:51:44;7.90;;;6.13;;
79074;SDS011;68476;42.710;23.388;2023-06-14T13:54:11;8.15;;;6.15;;
79074;SDS011;68476;42.710;23.388;2023-06-14T13:56:37;7.57;;;6.57;;
79074;SDS011;68476;42.710;23.388;2023-06-14T13:59:03;8.80;;;6.95;;
79074;SDS011;68476;42.710;23.388;2023-06-14T14:02:28;7.93;;;5.80;;
79074;SDS011;68476;42.710;23.388;2023-06-14T14:05:53;9.90;;;7.35;;
79074;SDS011;68476;42.710;23.388;2023-06-14T14:09:17;9.98;;;7.32;;
79074;SDS011;68476;42.710;23.388;2023-06-14T14:12:41;11.18;;;6.80;;
79074;SDS011;68476;42.710;23.388;2023-06-14T14:16:05;8.05;;;6.72;;
79074;SDS011;68476;42.710;23.388;2023-06-14T14:19:29;9.07;;;6.88;;
79074;SDS011;68476;42.710;23.388;2023-06-14T14:22:55;8.63;;;7.28;;
79074;SDS011;68476;42.710;23.388;2023-06-14T14:26:18;6.70;;;5.80;;
79074;SDS011;68476;42.710;23.388;2023-06-14T14:29:42;9.20;;;6.07;;
79074;SDS011;68476;42.710;23.388;2023-06-14T14:33:07;8.35;;;6.53;;
79074;SDS011;68476;42.710;23.388;2023-06-14T14:36:31;9.73;;;6.35;;
79074;SDS011;68476;42.710;23.388;2023-06-14T14:39:55;8.25;;;5.88;;
79074;SDS011;68476;42.710;23.388;2023-06-14T14:46:44;6.10;;;4.18;;
79074;SDS011;68476;42.710;23.388;2023-06-14T14:50:08;6.03;;;4.05;;
79074;SDS011;68476;42.710;23.388;2023-06-14T14:53:32;5.80;;;4.00;;
79074;SDS011;68476;42.710;23.388;2023-06-14T14:56:56;6.13;;;4.05;;
79074;SDS011;68476;42.710;23.388;2023-06-14T15:00:20;6.25;;;4.80;;